createdAt,value
2019-05-25T00:02:16.315Z,11.27
2019-05-25T00:04:46.783Z,11.77
2019-05-25T00:07:17.129Z,12.30
2019-05-25T00:09:48.468Z,14.87
2019-05-25T00:12:20.492Z,13.60
2019-05-25T00:14:50.547Z,12.90
2019-05-25T00:17:20.782Z,17.50
2019-05-25T00:19:50.966Z,14.87
2019-05-25T00:22:21.108Z,14.77
2019-05-25T00:24:51.227Z,15.03
2019-05-25T00:27:21.557Z,14.30
2019-05-25T00:29:51.770Z,12.90
2019-05-25T00:32:22.286Z,16.63
2019-05-25T00:34:52.711Z,17.17
2019-05-25T00:37:23.159Z,15.27
2019-05-25T00:39:53.859Z,13.80
2019-05-25T00:42:23.958Z,14.20
2019-05-25T00:44:54.290Z,17.73
2019-05-25T00:47:24.752Z,19.23
2019-05-25T00:49:54.976Z,20.10
2019-05-25T00:52:25.137Z,21.77
2019-05-25T00:54:55.567Z,16.93
2019-05-25T00:57:25.937Z,20.13
2019-05-25T00:59:56.059Z,15.07
2019-05-25T01:02:27.123Z,19.60
2019-05-25T01:04:57.507Z,14.83
2019-05-25T01:07:27.752Z,16.40
2019-05-25T01:09:57.816Z,12.50
2019-05-25T01:12:29.167Z,14.73
2019-05-25T01:14:59.495Z,15.27
2019-05-25T01:17:29.843Z,13.80
2019-05-25T01:20:00.017Z,18.60
2019-05-25T01:22:30.156Z,14.20
2019-05-25T01:25:00.243Z,20.53
2019-05-25T01:27:30.915Z,18.50
2019-05-25T01:30:01.146Z,18.17
2019-05-25T01:32:31.291Z,16.00
2019-05-25T01:35:01.424Z,19.00
2019-05-25T01:37:31.682Z,20.70
2019-05-25T01:40:01.742Z,15.80
2019-05-25T01:42:31.906Z,15.13
2019-05-25T01:45:02.279Z,19.63
2019-05-25T01:47:33.114Z,18.23
2019-05-25T01:50:03.544Z,16.43
2019-05-25T01:52:33.889Z,17.47
2019-05-25T01:55:03.983Z,16.23
2019-05-25T01:57:35.370Z,18.03
2019-05-25T02:00:06.406Z,16.30
2019-05-25T02:02:36.825Z,20.30
2019-05-25T02:05:07.502Z,19.40
2019-05-25T02:07:37.797Z,27.00
2019-05-25T02:10:07.864Z,19.53
2019-05-25T02:12:37.925Z,19.93
2019-05-25T02:15:10.300Z,17.40
2019-05-25T02:17:41.096Z,19.73
2019-05-25T02:20:11.511Z,16.00
2019-05-25T02:22:41.886Z,16.57
2019-05-25T02:25:18.154Z,17.23
2019-05-25T02:27:44.066Z,21.67
2019-05-25T02:30:15.161Z,23.40
2019-05-25T02:32:45.392Z,19.00
2019-05-25T02:35:27.310Z,20.17
2019-05-25T02:37:58.118Z,23.53
2019-05-25T02:40:28.949Z,19.37
2019-05-25T02:42:59.567Z,24.40
2019-05-25T02:45:29.615Z,20.33
2019-05-25T02:48:00.801Z,24.53
2019-05-25T02:50:30.913Z,21.13
2019-05-25T02:53:01.079Z,25.60
2019-05-25T02:55:34.796Z,23.57
2019-05-25T02:58:03.219Z,19.63
2019-05-25T03:00:34.239Z,22.40
2019-05-25T03:03:05.708Z,23.63
2019-05-25T03:05:35.806Z,23.13
2019-05-25T03:08:06.225Z,27.87
2019-05-25T03:10:37.836Z,15.70
2019-05-25T03:13:08.253Z,16.40
2019-05-25T03:15:38.403Z,19.50
2019-05-25T03:18:09.934Z,19.47
2019-05-25T03:20:40.049Z,18.33
2019-05-25T03:23:10.695Z,17.90
2019-05-25T03:25:49.662Z,17.50
2019-05-25T03:28:13.123Z,16.93
2019-05-25T03:30:43.172Z,20.33
2019-05-25T03:33:14.529Z,25.53
2019-05-25T03:35:44.928Z,18.50
2019-05-25T03:38:15.760Z,29.03
2019-05-25T03:40:46.289Z,25.30
2019-05-25T03:43:17.362Z,22.43
2019-05-25T03:45:47.515Z,23.37
2019-05-25T03:48:17.632Z,21.87
2019-05-25T03:50:47.741Z,19.53
2019-05-25T03:53:18.180Z,21.30
2019-05-25T03:56:02.815Z,20.17
2019-05-25T03:58:23.416Z,24.23
2019-05-25T04:00:54.608Z,19.07
2019-05-25T04:03:24.723Z,20.87
2019-05-25T04:05:54.915Z,20.27
2019-05-25T04:08:25.461Z,21.33
2019-05-25T04:10:55.786Z,33.33
2019-05-25T04:13:26.866Z,23.20
2019-05-25T04:15:56.983Z,22.07
2019-05-25T04:18:29.555Z,19.73
2019-05-25T04:20:59.689Z,20.00
2019-05-25T04:23:29.921Z,17.07
2019-05-25T04:25:59.979Z,21.80
2019-05-25T04:28:30.352Z,19.17
2019-05-25T04:31:00.548Z,19.50
2019-05-25T04:33:30.978Z,24.30
2019-05-25T04:36:01.134Z,22.47
2019-05-25T04:38:31.254Z,26.53
2019-05-25T04:41:01.472Z,20.23
2019-05-25T04:43:31.967Z,24.90
2019-05-25T04:46:02.045Z,22.07
2019-05-25T04:48:32.479Z,25.70
2019-05-25T04:51:02.536Z,19.77
2019-05-25T04:53:32.963Z,23.77
2019-05-25T04:56:03.091Z,19.27
2019-05-25T04:58:33.261Z,21.40
2019-05-25T05:01:03.661Z,22.97
2019-05-25T05:03:34.146Z,20.70
2019-05-25T05:06:04.295Z,20.50
2019-05-25T05:08:35.712Z,21.77
2019-05-25T05:11:07.317Z,23.00
2019-05-25T05:13:37.869Z,22.73
2019-05-25T05:16:08.226Z,21.03
2019-05-25T05:18:38.603Z,27.37
2019-05-25T05:21:08.685Z,18.83
2019-05-25T05:23:39.216Z,22.30
2019-05-25T05:26:09.352Z,23.53
2019-05-25T05:28:39.468Z,20.70
2019-05-25T05:31:22.808Z,22.17
2019-05-25T05:33:41.509Z,19.43
2019-05-25T05:36:13.118Z,17.67
2019-05-25T05:38:43.852Z,22.33
2019-05-25T05:41:16.654Z,22.87
2019-05-25T05:43:48.964Z,27.17
2019-05-25T05:46:21.319Z,22.20
2019-05-25T05:48:52.359Z,24.67
2019-05-25T05:51:22.548Z,22.03
2019-05-25T05:53:56.861Z,23.70
2019-05-25T05:56:26.913Z,26.70
2019-05-25T05:58:57.352Z,25.57
2019-05-25T06:01:27.497Z,31.00
2019-05-25T06:03:58.085Z,18.23
2019-05-25T06:06:28.231Z,21.13
2019-05-25T06:08:58.363Z,22.43
2019-05-25T06:11:28.747Z,20.27
2019-05-25T06:13:59.249Z,30.30
2019-05-25T06:16:29.372Z,20.10
2019-05-25T06:18:59.618Z,25.67
2019-05-25T06:21:29.754Z,22.73
2019-05-25T06:23:59.835Z,24.77
2019-05-25T06:26:29.984Z,22.33
2019-05-25T06:29:00.758Z,24.27
2019-05-25T06:31:30.855Z,20.87
2019-05-25T06:34:01.287Z,21.97
2019-05-25T06:36:31.373Z,21.03
2019-05-25T06:39:01.557Z,22.47
2019-05-25T06:41:32.003Z,20.13
2019-05-25T06:44:02.671Z,22.05
2019-05-25T06:46:32.838Z,22.43
2019-05-25T06:49:02.958Z,23.07
2019-05-25T06:51:33.029Z,26.27
2019-05-25T06:54:03.231Z,25.80
2019-05-25T06:56:33.404Z,26.83
2019-05-25T06:59:03.736Z,21.27
2019-05-25T07:01:34.116Z,27.73
2019-05-25T07:04:04.263Z,23.93
2019-05-25T07:06:34.430Z,23.67
2019-05-25T07:09:07.484Z,28.77
2019-05-25T07:11:37.666Z,21.43
2019-05-25T07:14:08.361Z,21.40
2019-05-25T07:16:38.506Z,22.27
2019-05-25T07:19:09.026Z,22.50
2019-05-25T07:21:39.188Z,20.40
2019-05-25T07:24:09.718Z,29.80
2019-05-25T07:26:39.857Z,25.55
2019-05-25T07:29:10.181Z,24.23
2019-05-25T07:31:40.571Z,28.73
2019-05-25T07:34:10.766Z,22.97
2019-05-25T07:36:41.181Z,18.83
2019-05-25T07:39:11.362Z,20.60
2019-05-25T07:41:41.487Z,19.43
2019-05-25T07:44:11.579Z,27.48
2019-05-25T07:46:41.802Z,20.77
2019-05-25T07:49:12.078Z,22.00
2019-05-25T07:51:42.163Z,16.45
2019-05-25T07:54:12.438Z,19.25
2019-05-25T07:56:42.556Z,21.03
2019-05-25T07:59:12.690Z,25.35
2019-05-25T08:01:42.764Z,20.25
2019-05-25T08:04:12.965Z,17.98
2019-05-25T08:06:43.429Z,18.92
2019-05-25T08:09:13.699Z,18.07
2019-05-25T08:11:44.256Z,15.85
2019-05-25T08:14:14.800Z,12.90
2019-05-25T08:16:45.023Z,19.95
2019-05-25T08:19:15.444Z,17.80
2019-05-25T08:21:45.657Z,12.90
2019-05-25T08:24:17.088Z,20.55
2019-05-25T08:26:47.292Z,12.23
2019-05-25T08:29:17.494Z,11.23
2019-05-25T08:31:47.658Z,22.85
2019-05-25T08:34:17.955Z,14.28
2019-05-25T08:36:48.141Z,13.75
2019-05-25T08:39:19.230Z,20.85
2019-05-25T08:41:49.405Z,18.32
2019-05-25T08:44:19.633Z,16.10
2019-05-25T08:46:50.116Z,17.80
2019-05-25T08:49:20.413Z,16.52
2019-05-25T08:51:50.560Z,18.82
2019-05-25T08:54:20.824Z,15.98
2019-05-25T08:56:50.911Z,16.97
2019-05-25T08:59:22.244Z,17.55
2019-05-25T09:01:53.400Z,20.82
2019-05-25T09:04:25.705Z,18.02
2019-05-25T09:06:55.969Z,24.72
2019-05-25T09:09:26.243Z,32.80
2019-05-25T09:11:56.683Z,21.45
2019-05-25T09:14:27.709Z,14.50
2019-05-25T09:16:58.207Z,16.95
2019-05-25T09:19:28.780Z,17.77
2019-05-25T09:22:02.569Z,25.32
2019-05-25T09:24:30.837Z,20.15
2019-05-25T09:27:01.138Z,19.15
2019-05-25T09:29:31.372Z,18.25
2019-05-25T09:32:01.533Z,25.57
2019-05-25T09:34:32.044Z,17.45
2019-05-25T09:37:02.275Z,21.62
2019-05-25T09:39:32.536Z,21.10
2019-05-25T09:42:02.748Z,30.32
2019-05-25T09:44:33.310Z,22.42
2019-05-25T09:47:03.558Z,26.10
2019-05-25T09:49:34.022Z,23.62
2019-05-25T09:52:04.205Z,19.67
2019-05-25T09:54:34.448Z,24.63
2019-05-25T09:57:05.136Z,24.50
2019-05-25T09:59:35.311Z,28.35
2019-05-25T10:02:05.590Z,24.23
2019-05-25T10:04:35.872Z,23.42
2019-05-25T10:07:06.116Z,23.22
2019-05-25T10:09:39.879Z,21.30
2019-05-25T10:12:09.380Z,22.55
2019-05-25T10:14:39.554Z,26.68
2019-05-25T10:17:09.892Z,24.02
2019-05-25T10:19:40.247Z,16.62
2019-05-25T10:22:10.493Z,20.00
2019-05-25T10:24:40.731Z,21.40
2019-05-25T10:27:10.947Z,20.80
2019-05-25T10:29:41.547Z,17.77
2019-05-25T10:32:11.711Z,23.65
2019-05-25T10:34:42.228Z,17.00
2019-05-25T10:37:12.719Z,21.30
2019-05-25T10:39:42.995Z,17.95
2019-05-25T10:42:13.408Z,19.67
2019-05-25T10:44:43.590Z,17.60
2019-05-25T10:47:13.700Z,16.52
2019-05-25T10:49:43.914Z,14.85
2019-05-25T10:52:14.408Z,16.87
2019-05-25T10:54:44.612Z,21.17
2019-05-25T10:57:14.865Z,13.40
2019-05-25T10:59:52.889Z,12.45
2019-05-25T11:02:17.090Z,16.62
2019-05-25T11:04:47.280Z,14.60
2019-05-25T11:07:17.475Z,14.38
2019-05-25T11:09:47.913Z,13.83
2019-05-25T11:12:18.053Z,17.77
2019-05-25T11:14:48.173Z,18.48
2019-05-25T11:17:18.264Z,18.42
2019-05-25T11:19:48.491Z,21.45
2019-05-25T11:22:18.618Z,16.80
2019-05-25T11:24:48.851Z,21.87
2019-05-25T11:27:19.031Z,26.23
2019-05-25T11:29:49.262Z,15.93
2019-05-25T11:32:19.419Z,21.12
2019-05-25T11:34:49.502Z,24.23
2019-05-25T11:37:20.286Z,18.07
2019-05-25T11:39:50.797Z,16.65
2019-05-25T11:42:21.053Z,14.53
2019-05-25T11:44:51.291Z,18.20
2019-05-25T11:47:21.743Z,18.70
2019-05-25T11:49:53.039Z,15.58
2019-05-25T11:52:23.207Z,22.07
2019-05-25T11:54:53.651Z,19.02
2019-05-25T11:57:23.767Z,18.77
2019-05-25T11:59:54.326Z,17.23
2019-05-25T12:02:24.578Z,15.08
2019-05-25T12:04:54.793Z,19.42
2019-05-25T12:07:25.481Z,14.33
2019-05-25T12:09:55.867Z,16.05
2019-05-25T12:12:26.050Z,15.13
2019-05-25T12:14:56.310Z,15.80
2019-05-25T12:17:26.416Z,15.65
2019-05-25T12:19:56.937Z,17.07
2019-05-25T12:22:28.159Z,20.25
2019-05-25T12:24:58.325Z,17.67
2019-05-25T12:27:28.509Z,16.62
2019-05-25T12:29:59.789Z,12.73
2019-05-25T12:32:29.984Z,12.03
2019-05-25T12:35:00.431Z,12.23
2019-05-25T12:37:30.594Z,14.53
2019-05-25T12:40:01.113Z,13.98
2019-05-25T12:42:31.299Z,18.32
2019-05-25T12:45:01.494Z,15.48
2019-05-25T12:47:31.699Z,10.38
2019-05-25T12:50:01.967Z,12.43
2019-05-25T12:52:32.186Z,9.60
2019-05-25T12:55:02.468Z,7.90
2019-05-25T12:57:32.708Z,11.15
2019-05-25T13:00:15.048Z,22.55
2019-05-25T13:02:35.614Z,9.68
2019-05-25T13:05:06.310Z,10.35
2019-05-25T13:07:36.805Z,11.20
2019-05-25T13:10:07.405Z,10.10
2019-05-25T13:12:37.760Z,3.85
2019-05-25T13:15:08.657Z,11.45
2019-05-25T13:17:39.093Z,6.33
2019-05-25T13:20:09.992Z,11.43
2019-05-25T13:22:40.226Z,7.87
2019-05-25T13:25:10.736Z,7.17
2019-05-25T13:27:41.214Z,7.92
2019-05-25T13:30:11.919Z,9.18
2019-05-25T13:32:42.098Z,10.08
2019-05-25T13:35:12.289Z,7.00
2019-05-25T13:37:42.750Z,8.28
2019-05-25T13:40:13.324Z,8.60
2019-05-25T13:42:43.456Z,5.05
2019-05-25T13:45:14.005Z,6.42
2019-05-25T13:47:44.148Z,5.33
2019-05-25T13:50:14.882Z,6.50
2019-05-25T13:52:45.116Z,6.62
2019-05-25T13:55:15.467Z,7.75
2019-05-25T13:57:45.806Z,6.37
2019-05-25T14:00:16.575Z,7.05
2019-05-25T14:02:46.961Z,6.08
2019-05-25T14:05:17.539Z,6.58
2019-05-25T14:07:48.319Z,7.30
2019-05-25T14:10:18.848Z,8.18
2019-05-25T14:12:49.971Z,6.75
2019-05-25T14:15:20.180Z,11.80
2019-05-25T14:17:50.409Z,7.05
2019-05-25T14:20:21.813Z,6.58
2019-05-25T14:22:54.908Z,6.37
2019-05-25T14:25:25.114Z,4.92
2019-05-25T14:27:55.672Z,10.60
2019-05-25T14:30:25.982Z,6.85
2019-05-25T14:32:56.330Z,4.62
2019-05-25T14:35:26.450Z,9.50
2019-05-25T14:37:57.201Z,9.20
2019-05-25T14:40:27.466Z,5.60
2019-05-25T14:42:57.508Z,6.72
2019-05-25T14:45:27.626Z,10.32
2019-05-25T14:47:58.219Z,7.75
2019-05-25T14:50:28.466Z,6.03
2019-05-25T14:52:58.597Z,7.17
2019-05-25T14:55:29.131Z,8.43
2019-05-25T14:57:59.466Z,6.42
2019-05-25T15:00:30.274Z,4.95
2019-05-25T15:03:00.423Z,9.18
2019-05-25T15:05:30.610Z,6.65
2019-05-25T15:08:00.757Z,11.05
2019-05-25T15:10:31.069Z,6.47
2019-05-25T15:13:01.124Z,7.47
2019-05-25T15:15:31.322Z,6.47
2019-05-25T15:18:01.533Z,6.05
2019-05-25T15:20:32.216Z,14.63
2019-05-25T15:23:02.290Z,9.98
2019-05-25T15:25:32.412Z,10.63
2019-05-25T15:28:02.710Z,13.58
2019-05-25T15:30:32.811Z,15.90
2019-05-25T15:33:04.108Z,21.42
2019-05-25T15:35:34.606Z,20.40
2019-05-25T15:38:04.874Z,13.22
2019-05-25T15:40:38.456Z,12.30
2019-05-25T15:43:07.244Z,11.97
2019-05-25T15:45:37.549Z,14.98
2019-05-25T15:48:07.807Z,10.70
2019-05-25T15:50:38.697Z,14.73
2019-05-25T15:53:08.922Z,11.03
2019-05-25T15:55:39.130Z,15.45
2019-05-25T15:58:09.871Z,13.85
2019-05-25T16:00:48.139Z,14.95
2019-05-25T16:03:20.419Z,12.58
2019-05-25T16:05:50.814Z,13.62
2019-05-25T16:08:22.338Z,8.05
2019-05-25T16:10:53.159Z,14.33
2019-05-25T16:13:23.325Z,11.40
2019-05-25T16:15:53.521Z,13.18
2019-05-25T16:18:23.680Z,11.53
2019-05-25T16:20:54.090Z,12.58
2019-05-25T16:23:24.274Z,14.63
2019-05-25T16:25:54.851Z,12.98
2019-05-25T16:28:24.945Z,11.43
2019-05-25T16:30:55.061Z,12.33
2019-05-25T16:33:26.203Z,17.07
2019-05-25T16:35:58.011Z,11.50
2019-05-25T16:38:28.289Z,9.55
2019-05-25T16:40:58.834Z,11.50
2019-05-25T16:43:29.385Z,9.63
2019-05-25T16:45:59.675Z,10.53
2019-05-25T16:48:29.739Z,10.28
2019-05-25T16:51:00.252Z,12.33
2019-05-25T16:53:30.434Z,11.70
2019-05-25T16:56:00.643Z,8.78
2019-05-25T16:58:30.834Z,14.80
2019-05-25T17:01:01.506Z,17.60
2019-05-25T17:03:31.689Z,14.07
2019-05-25T17:06:01.840Z,13.38
2019-05-25T17:08:32.301Z,14.05
2019-05-25T17:11:02.404Z,14.58
2019-05-25T17:13:32.934Z,12.25
2019-05-25T17:16:03.588Z,12.47
2019-05-25T17:18:33.807Z,16.05
2019-05-25T17:21:04.286Z,15.53
2019-05-25T17:23:34.711Z,16.07
2019-05-25T17:26:05.309Z,14.60
2019-05-25T17:28:35.439Z,15.20
2019-05-25T17:31:05.588Z,18.32
2019-05-25T17:33:45.428Z,16.60
2019-05-25T17:36:07.536Z,19.20
2019-05-25T17:38:37.687Z,17.15
2019-05-25T17:41:08.124Z,14.70
2019-05-25T17:43:38.684Z,19.00
2019-05-25T17:46:09.240Z,16.60
2019-05-25T17:48:39.526Z,18.37
2019-05-25T17:51:09.768Z,16.05
2019-05-25T17:53:40.316Z,17.85
2019-05-25T17:56:10.831Z,14.35
2019-05-25T17:58:41.277Z,17.98
2019-05-25T18:01:11.501Z,14.05
2019-05-25T18:03:41.737Z,13.25
2019-05-25T18:06:11.943Z,13.93
2019-05-25T18:08:42.441Z,17.27
2019-05-25T18:11:12.653Z,12.55
2019-05-25T18:13:42.803Z,15.85
2019-05-25T18:16:13.318Z,13.75
2019-05-25T18:18:43.760Z,15.88
2019-05-25T18:21:14.129Z,14.40
2019-05-25T18:23:44.284Z,17.15
2019-05-25T18:26:14.690Z,15.15
2019-05-25T18:28:44.903Z,15.48
2019-05-25T18:31:15.147Z,21.33
2019-05-25T18:33:45.237Z,14.00
2019-05-25T18:36:15.433Z,19.27
2019-05-25T18:38:45.555Z,18.87
2019-05-25T18:41:16.009Z,20.23
2019-05-25T18:43:46.096Z,15.08
2019-05-25T18:46:16.380Z,15.85
2019-05-25T18:48:46.606Z,13.10
2019-05-25T18:51:16.875Z,12.82
2019-05-25T18:53:47.002Z,14.03
2019-05-25T18:56:17.561Z,11.18
2019-05-25T18:58:48.043Z,10.53
2019-05-25T19:01:18.418Z,18.20
2019-05-25T19:03:48.984Z,16.42
2019-05-25T19:06:19.539Z,14.40
2019-05-25T19:08:49.736Z,13.35
2019-05-25T19:11:19.963Z,15.72
2019-05-25T19:13:50.400Z,12.53
2019-05-25T19:16:20.919Z,12.13
2019-05-25T19:18:51.176Z,11.95
2019-05-25T19:21:21.785Z,14.50
2019-05-25T19:23:51.927Z,16.57
2019-05-25T19:26:22.101Z,12.15
2019-05-25T19:28:52.261Z,21.45
2019-05-25T19:31:22.810Z,17.57
2019-05-25T19:33:52.892Z,12.63
2019-05-25T19:36:23.550Z,13.83
2019-05-25T19:38:53.629Z,16.40
2019-05-25T19:41:23.838Z,11.43
2019-05-25T19:43:54.303Z,13.62
2019-05-25T19:46:24.567Z,18.05
2019-05-25T19:48:54.976Z,17.27
2019-05-25T19:51:26.286Z,15.30
2019-05-25T19:53:56.740Z,15.90
2019-05-25T19:56:27.016Z,21.97
2019-05-25T19:58:57.498Z,14.73
2019-05-25T20:01:27.763Z,16.52
2019-05-25T20:03:57.888Z,14.15
2019-05-25T20:06:27.993Z,14.83
2019-05-25T20:08:59.268Z,15.45
2019-05-25T20:11:29.501Z,18.73
2019-05-25T20:13:59.659Z,15.60
2019-05-25T20:16:29.775Z,17.23
2019-05-25T20:18:59.991Z,15.93
2019-05-25T20:21:30.325Z,24.47
2019-05-25T20:24:00.823Z,12.95
2019-05-25T20:26:31.057Z,14.87
2019-05-25T20:29:01.352Z,13.43
2019-05-25T20:31:31.833Z,14.78
2019-05-25T20:34:02.008Z,17.62
2019-05-25T20:36:32.604Z,20.82
2019-05-25T20:39:02.979Z,17.35
2019-05-25T20:41:33.510Z,14.25
2019-05-25T20:44:03.740Z,16.12
2019-05-25T20:46:34.038Z,14.98
2019-05-25T20:49:04.564Z,16.10
2019-05-25T20:51:34.994Z,13.03
2019-05-25T20:54:05.715Z,11.45
2019-05-25T20:56:36.277Z,18.45
2019-05-25T20:59:06.493Z,24.63
2019-05-25T21:01:36.731Z,19.42
2019-05-25T21:04:10.351Z,17.77
2019-05-25T21:06:40.477Z,13.93
2019-05-25T21:09:10.911Z,11.08
2019-05-25T21:11:41.085Z,18.17
2019-05-25T21:14:11.904Z,15.83
2019-05-25T21:16:42.072Z,18.27
2019-05-25T21:19:12.129Z,16.87
2019-05-25T21:21:42.274Z,19.33
2019-05-25T21:24:12.784Z,20.37
2019-05-25T21:26:43.322Z,15.45
2019-05-25T21:29:13.883Z,15.30
2019-05-25T21:31:44.985Z,20.75
2019-05-25T21:34:15.128Z,22.52
2019-05-25T21:36:45.684Z,29.77
2019-05-25T21:39:15.776Z,25.72
2019-05-25T21:41:46.282Z,29.25
2019-05-25T21:44:16.742Z,23.20
2019-05-25T21:46:46.938Z,27.77
2019-05-25T21:49:17.146Z,33.67
2019-05-25T21:51:47.573Z,29.70
2019-05-25T21:54:17.630Z,27.90
2019-05-25T21:56:47.849Z,27.55
2019-05-25T21:59:18.065Z,30.57
2019-05-25T22:01:48.198Z,26.45
2019-05-25T22:04:18.724Z,31.97
2019-05-25T22:06:48.834Z,31.70
2019-05-25T22:09:19.202Z,33.98
2019-05-25T22:11:49.686Z,37.10
2019-05-25T22:14:20.132Z,37.63
2019-05-25T22:16:50.658Z,37.85
2019-05-25T22:19:21.070Z,37.35
2019-05-25T22:21:51.341Z,33.30
2019-05-25T22:24:21.476Z,35.73
2019-05-25T22:26:51.855Z,35.98
2019-05-25T22:29:21.963Z,40.98
2019-05-25T22:31:52.436Z,35.35
2019-05-25T22:34:22.871Z,36.65
2019-05-25T22:36:52.995Z,40.92
2019-05-25T22:39:23.253Z,38.98
2019-05-25T22:41:53.627Z,42.05
2019-05-25T22:44:23.949Z,47.78
2019-05-25T22:46:54.258Z,41.10
2019-05-25T22:49:24.398Z,41.98
2019-05-25T22:51:54.677Z,40.43
2019-05-25T22:54:25.297Z,45.53
2019-05-25T22:56:55.825Z,46.95
2019-05-25T22:59:26.402Z,46.60
2019-05-25T23:01:56.915Z,45.90
2019-05-25T23:04:28.194Z,48.68
2019-05-25T23:06:58.718Z,42.13
2019-05-25T23:09:29.365Z,44.58
2019-05-25T23:12:00.643Z,43.08
2019-05-25T23:14:30.809Z,46.73
2019-05-25T23:17:01.115Z,42.88
2019-05-25T23:19:32.230Z,42.75
2019-05-25T23:22:02.442Z,43.08
2019-05-25T23:24:32.682Z,45.92
2019-05-25T23:27:02.807Z,46.05
2019-05-25T23:29:32.906Z,43.73
2019-05-25T23:32:03.367Z,47.40
2019-05-25T23:34:33.487Z,46.92
2019-05-25T23:37:14.350Z,52.48
2019-05-25T23:39:35.769Z,52.88
2019-05-25T23:42:06.213Z,50.75
2019-05-25T23:44:36.408Z,60.48
2019-05-25T23:47:06.737Z,55.90
2019-05-25T23:49:37.026Z,55.65
2019-05-25T23:52:07.226Z,54.38
2019-05-25T23:54:37.757Z,52.43
2019-05-25T23:57:07.936Z,59.08
2019-05-25T23:59:38.695Z,48.35
